Time;durP1;ratioP1;P1;durP2;ratioP2;P2;SDS_P1;SDS_P2;PMS_P1;PMS_P2;Temp;Humidity;BMP_temperature;BMP_pressure;BME280_temperature;BME280_humidity;BME280_pressure;Samples;Min_cycle;Max_cycle;Signal;HPM_P1;HPM_P2
2022/05/22 00:01:50;;;;;;;;;;;18.60;61.50;;;;;;4996723;28;19945;-67
2022/05/22 00:04:16;;;;;;;;;;;18.60;61.70;;;;;;4999047;28;20309;-70
2022/05/22 00:06:43;;;;;;;;;;;18.50;61.70;;;;;;5003301;28;19929;-69
2022/05/22 00:09:11;;;;;;;;;;;18.50;62.00;;;;;;5001123;28;19929;-71
2022/05/22 00:11:37;;;;;;;;;;;18.40;61.90;;;;;;4999233;28;19933;-70
2022/05/22 00:14:04;;;;;;;;;;;18.40;62.10;;;;;;5001970;28;19937;-70
2022/05/22 00:16:41;;;;;;;;;;;18.40;62.00;;;;;;4999176;28;19934;-69
2022/05/22 00:19:09;;;;;;;;;;;18.30;62.20;;;;;;4998241;28;19944;-70
2022/05/22 00:21:36;;;;;;;;;;;18.30;62.30;;;;;;5002114;28;19937;-72
2022/05/22 00:24:02;;;;;;;;;;;18.30;62.40;;;;;;5003799;28;19965;-70
2022/05/22 00:26:30;;;;;;;;;;;18.20;62.40;;;;;;4997447;28;19933;-70
2022/05/22 00:28:57;;;;;;;;;;;18.20;62.40;;;;;;5003306;28;19955;-69
2022/05/22 00:31:23;;;;;;;;;;;18.20;62.40;;;;;;4999015;28;19936;-70
2022/05/22 00:33:50;;;;;;;;;;;18.20;62.70;;;;;;5002207;28;19937;-69
2022/05/22 00:36:17;;;;;;;;;;;18.10;62.60;;;;;;5000541;28;20017;-69
2022/05/22 00:38:43;;;;;;;;;;;18.10;62.60;;;;;;5004345;28;19934;-68
2022/05/22 00:41:11;;;;;;;;;;;18.00;62.70;;;;;;5003916;28;20607;-70
2022/05/22 00:43:40;;;;;;;;;;;18.00;62.70;;;;;;5003452;28;19930;-69
2022/05/22 00:46:07;;;;;;;;;;;17.90;62.90;;;;;;5001016;28;20409;-69
2022/05/22 00:48:34;;;;;;;;;;;17.90;63.00;;;;;;5002559;28;20008;-69
2022/05/22 00:51:03;;;;;;;;;;;17.90;63.20;;;;;;5004996;28;19933;-71
2022/05/22 00:53:31;;;;;;;;;;;17.80;63.30;;;;;;4997638;28;19930;-73
2022/05/22 00:55:57;;;;;;;;;;;17.80;63.40;;;;;;5005489;28;20047;-72
2022/05/22 00:58:27;;;;;;;;;;;17.70;63.40;;;;;;5001714;28;19925;-69
2022/05/22 01:00:55;;;;;;;;;;;17.70;63.40;;;;;;5004056;28;19933;-70
2022/05/22 01:03:28;;;;;;;;;;;17.70;63.50;;;;;;4996995;28;19929;-69
2022/05/22 01:05:55;;;;;;;;;;;17.70;63.70;;;;;;5000014;28;19929;-70
2022/05/22 01:08:22;;;;;;;;;;;17.70;63.80;;;;;;4999142;28;19930;-69
2022/05/22 01:10:50;;;;;;;;;;;17.60;63.80;;;;;;5002113;28;20456;-74
2022/05/22 01:13:19;;;;;;;;;;;17.60;63.90;;;;;;4999792;28;19952;-73
2022/05/22 01:15:46;;;;;;;;;;;17.50;64.10;;;;;;5002158;28;19929;-69
2022/05/22 01:18:14;;;;;;;;;;;17.50;64.00;;;;;;4994892;28;19929;-68
2022/05/22 01:20:45;;;;;;;;;;;17.50;64.10;;;;;;5003689;28;19937;-68
2022/05/22 01:23:14;;;;;;;;;;;17.40;64.10;;;;;;5003628;28;20389;-68
2022/05/22 01:25:40;;;;;;;;;;;17.40;64.20;;;;;;5002376;28;19929;-72
2022/05/22 01:28:07;;;;;;;;;;;17.40;64.40;;;;;;4998581;28;20005;-67
2022/05/22 01:30:34;;;;;;;;;;;17.40;64.40;;;;;;5001547;28;19972;-69
2022/05/22 01:33:00;;;;;;;;;;;17.30;64.30;;;;;;4996638;28;19929;-71
2022/05/22 01:35:28;;;;;;;;;;;17.30;64.40;;;;;;5003208;28;20306;-68
2022/05/22 01:37:55;;;;;;;;;;;17.30;64.60;;;;;;5002089;28;19929;-69
2022/05/22 01:40:23;;;;;;;;;;;17.20;64.50;;;;;;5000931;28;20385;-67
2022/05/22 01:42:50;;;;;;;;;;;17.20;64.60;;;;;;5001662;28;20435;-67
2022/05/22 01:45:18;;;;;;;;;;;17.10;64.70;;;;;;4999630;28;19940;-68
2022/05/22 01:47:45;;;;;;;;;;;17.20;64.80;;;;;;5002734;28;19933;-69
2022/05/22 01:50:11;;;;;;;;;;;17.10;64.80;;;;;;5002229;28;19952;-71
2022/05/22 01:52:38;;;;;;;;;;;17.10;65.00;;;;;;4997904;28;19932;-71
2022/05/22 01:55:06;;;;;;;;;;;17.00;65.00;;;;;;5000956;28;19937;-70
2022/05/22 01:57:34;;;;;;;;;;;17.00;65.10;;;;;;5002842;28;19933;-70
2022/05/22 02:00:00;;;;;;;;;;;17.00;65.10;;;;;;4996885;28;19933;-69
2022/05/22 02:02:27;;;;;;;;;;;17.00;65.30;;;;;;5000306;28;20005;-69
2022/05/22 02:04:53;;;;;;;;;;;16.90;65.20;;;;;;4998795;28;20326;-72
2022/05/22 02:10:05;;;;;;;;;;;16.90;65.40;;;;;;5000967;28;19991;-72
2022/05/22 02:12:31;;;;;;;;;;;16.90;65.60;;;;;;5001080;28;19936;-70
2022/05/22 02:14:59;;;;;;;;;;;16.90;65.50;;;;;;4999335;28;19934;-70
2022/05/22 02:17:27;;;;;;;;;;;16.80;65.60;;;;;;4996147;28;19944;-71
2022/05/22 02:19:54;;;;;;;;;;;16.70;65.70;;;;;;5001137;28;20409;-70
2022/05/22 02:22:20;;;;;;;;;;;16.70;65.60;;;;;;4996268;28;19925;-66
2022/05/22 02:24:49;;;;;;;;;;;16.70;65.70;;;;;;5001129;28;19929;-69
2022/05/22 02:27:16;;;;;;;;;;;16.70;65.80;;;;;;5002830;28;19936;-71
2022/05/22 02:29:42;;;;;;;;;;;16.60;65.80;;;;;;4999352;28;19930;-67
2022/05/22 02:32:10;;;;;;;;;;;16.60;65.90;;;;;;5002368;28;19929;-71
2022/05/22 02:34:37;;;;;;;;;;;16.60;66.00;;;;;;5001242;28;19936;-69
2022/05/22 02:37:04;;;;;;;;;;;16.50;66.00;;;;;;5000280;28;19937;-70
2022/05/22 02:39:31;;;;;;;;;;;16.60;66.10;;;;;;5002549;28;19959;-68
2022/05/22 02:42:01;;;;;;;;;;;16.50;66.10;;;;;;5001748;28;19968;-72
2022/05/22 02:44:28;;;;;;;;;;;16.50;66.30;;;;;;5000505;28;19929;-70
2022/05/22 02:46:54;;;;;;;;;;;16.50;66.20;;;;;;5000795;28;19940;-68
2022/05/22 02:49:22;;;;;;;;;;;16.50;66.40;;;;;;4997990;28;19937;-69
2022/05/22 02:51:49;;;;;;;;;;;16.40;66.30;;;;;;4997785;28;19933;-70
2022/05/22 02:54:15;;;;;;;;;;;16.40;66.50;;;;;;4999211;28;19929;-68
2022/05/22 02:56:42;;;;;;;;;;;16.40;66.50;;;;;;4996674;28;19945;-67
2022/05/22 02:59:10;;;;;;;;;;;16.30;66.40;;;;;;5002672;28;19929;-69
2022/05/22 03:01:36;;;;;;;;;;;16.30;66.50;;;;;;5001128;28;19930;-69
2022/05/22 03:04:03;;;;;;;;;;;16.40;66.60;;;;;;4999153;28;20436;-71
2022/05/22 03:06:40;;;;;;;;;;;16.30;66.60;;;;;;4998140;28;19936;-68
2022/05/22 03:09:08;;;;;;;;;;;16.30;66.60;;;;;;4999959;28;20052;-71
2022/05/22 03:11:36;;;;;;;;;;;16.20;66.70;;;;;;4996132;28;19934;-69
2022/05/22 03:14:03;;;;;;;;;;;16.20;66.80;;;;;;4994255;28;20371;-69
2022/05/22 03:16:29;;;;;;;;;;;16.20;66.80;;;;;;4997200;28;19930;-69
2022/05/22 03:18:56;;;;;;;;;;;16.20;66.80;;;;;;4994130;28;20657;-70
2022/05/22 03:21:22;;;;;;;;;;;16.20;67.00;;;;;;4994573;28;19929;-69
2022/05/22 03:23:50;;;;;;;;;;;16.10;66.90;;;;;;5000323;28;19929;-70
2022/05/22 03:26:17;;;;;;;;;;;16.10;66.90;;;;;;4993394;28;19929;-69
2022/05/22 03:28:43;;;;;;;;;;;16.10;67.00;;;;;;4996663;28;19937;-68
2022/05/22 03:31:10;;;;;;;;;;;16.00;67.10;;;;;;4998919;28;19941;-71
2022/05/22 03:33:36;;;;;;;;;;;16.00;67.10;;;;;;5002853;28;19930;-69
2022/05/22 03:36:04;;;;;;;;;;;16.00;67.20;;;;;;5004431;28;19937;-71
2022/05/22 03:38:31;;;;;;;;;;;16.00;67.20;;;;;;5004033;28;20808;-68
2022/05/22 03:40:59;;;;;;;;;;;16.00;67.30;;;;;;4998187;28;20028;-71
2022/05/22 03:43:25;;;;;;;;;;;15.90;67.30;;;;;;4998213;28;20004;-68
2022/05/22 03:45:52;;;;;;;;;;;15.90;67.30;;;;;;5004050;28;19936;-69
2022/05/22 03:48:18;;;;;;;;;;;15.90;67.30;;;;;;4999800;28;19936;-70
2022/05/22 03:50:47;;;;;;;;;;;15.90;67.40;;;;;;5004834;28;19929;-69
2022/05/22 03:53:14;;;;;;;;;;;15.90;67.60;;;;;;5004716;28;19945;-71
2022/05/22 03:55:42;;;;;;;;;;;15.80;67.50;;;;;;5003483;28;19929;-70
2022/05/22 03:58:10;;;;;;;;;;;15.80;67.50;;;;;;5003581;28;20016;-71
2022/05/22 04:00:36;;;;;;;;;;;15.80;67.60;;;;;;5001846;28;19929;-70
2022/05/22 04:03:03;;;;;;;;;;;15.80;67.60;;;;;;5003004;28;19929;-72
2022/05/22 04:05:29;;;;;;;;;;;15.80;67.60;;;;;;4999462;28;20507;-68
2022/05/22 04:07:56;;;;;;;;;;;15.80;67.70;;;;;;5002031;28;19975;-70
2022/05/22 04:10:23;;;;;;;;;;;15.70;67.70;;;;;;5004778;28;19926;-69
2022/05/22 04:12:49;;;;;;;;;;;15.70;67.90;;;;;;5003306;28;20365;-70
2022/05/22 04:15:19;;;;;;;;;;;15.70;67.90;;;;;;5000642;28;19933;-68
2022/05/22 04:17:46;;;;;;;;;;;15.70;68.00;;;;;;4993529;28;20039;-69
2022/05/22 04:20:12;;;;;;;;;;;15.70;68.00;;;;;;5003501;28;19933;-68
2022/05/22 04:25:11;;;;;;;;;;;15.60;68.00;;;;;;5002270;28;19940;-71
2022/05/22 04:25:25;;;;;;;;;;;15.60;68.10;;;;;;4998206;28;20020;-67
2022/05/22 04:27:52;;;;;;;;;;;15.60;68.30;;;;;;5003457;28;19968;-68
2022/05/22 04:30:20;;;;;;;;;;;15.60;68.40;;;;;;4998326;28;19936;-71
2022/05/22 04:32:46;;;;;;;;;;;15.60;68.30;;;;;;5002660;28;19936;-72
2022/05/22 04:35:13;;;;;;;;;;;15.50;68.40;;;;;;5004267;28;19933;-69
2022/05/22 04:37:40;;;;;;;;;;;15.50;68.50;;;;;;5003649;28;19933;-69
2022/05/22 04:40:07;;;;;;;;;;;15.50;68.50;;;;;;4999289;28;19936;-67
2022/05/22 04:42:34;;;;;;;;;;;15.50;68.60;;;;;;5003662;28;19936;-68
2022/05/22 04:45:01;;;;;;;;;;;15.50;68.60;;;;;;4999665;28;20091;-69
2022/05/22 04:47:29;;;;;;;;;;;15.50;68.70;;;;;;5000623;28;19929;-70
2022/05/22 04:49:55;;;;;;;;;;;15.50;68.70;;;;;;5003202;28;19930;-72
2022/05/22 04:52:22;;;;;;;;;;;15.50;68.80;;;;;;5000958;28;19937;-69
2022/05/22 04:54:52;;;;;;;;;;;15.40;68.80;;;;;;5002797;28;19926;-69
2022/05/22 04:57:18;;;;;;;;;;;15.40;68.90;;;;;;4998588;28;19929;-71
2022/05/22 04:59:45;;;;;;;;;;;15.40;68.90;;;;;;5002948;28;19929;-70
2022/05/22 05:02:11;;;;;;;;;;;15.40;69.00;;;;;;4997780;28;19940;-68
2022/05/22 05:04:39;;;;;;;;;;;15.40;69.70;;;;;;4997699;28;19936;-67
2022/05/22 05:07:06;;;;;;;;;;;15.40;68.90;;;;;;5000693;28;19929;-69
2022/05/22 05:09:34;;;;;;;;;;;15.40;69.00;;;;;;5002817;28;19930;-72
2022/05/22 05:12:01;;;;;;;;;;;15.30;69.00;;;;;;5003452;28;19937;-72
2022/05/22 05:14:28;;;;;;;;;;;15.30;69.20;;;;;;5001492;28;20032;-69
2022/05/22 05:16:54;;;;;;;;;;;15.30;69.20;;;;;;5002750;28;19937;-69
2022/05/22 05:19:21;;;;;;;;;;;15.30;69.40;;;;;;5001688;28;19929;-70
2022/05/22 05:21:49;;;;;;;;;;;15.30;69.40;;;;;;5002491;28;19930;-70
2022/05/22 05:24:15;;;;;;;;;;;15.30;69.40;;;;;;4997899;28;19930;-71
2022/05/22 05:26:42;;;;;;;;;;;15.30;69.40;;;;;;4999604;28;19941;-69
2022/05/22 05:29:08;;;;;;;;;;;15.30;69.50;;;;;;5000377;28;20027;-69
2022/05/22 05:31:35;;;;;;;;;;;15.30;69.60;;;;;;5002449;28;19929;-71
2022/05/22 05:34:02;;;;;;;;;;;15.30;69.70;;;;;;5002699;28;19944;-67
2022/05/22 05:36:28;;;;;;;;;;;15.20;69.70;;;;;;4999271;28;19930;-69
2022/05/22 05:38:56;;;;;;;;;;;15.30;69.70;;;;;;4999584;28;19929;-68
2022/05/22 05:41:23;;;;;;;;;;;15.30;69.80;;;;;;4999678;28;20347;-70
2022/05/22 05:43:49;;;;;;;;;;;15.30;69.80;;;;;;4999540;28;20469;-70
2022/05/22 05:46:16;;;;;;;;;;;15.20;70.50;;;;;;5001240;28;20406;-67
2022/05/22 05:48:42;;;;;;;;;;;15.30;69.90;;;;;;5003651;28;19941;-66
2022/05/22 05:51:09;;;;;;;;;;;15.30;69.90;;;;;;5000402;28;19941;-69
2022/05/22 05:53:35;;;;;;;;;;;15.30;70.00;;;;;;4995930;28;19936;-71
2022/05/22 05:56:05;;;;;;;;;;;15.30;70.00;;;;;;4999939;28;19929;-69
2022/05/22 05:58:32;;;;;;;;;;;15.30;70.10;;;;;;5001635;28;20016;-70
2022/05/22 06:00:58;;;;;;;;;;;15.30;70.10;;;;;;4997403;28;19937;-67
2022/05/22 06:03:25;;;;;;;;;;;15.30;70.10;;;;;;4993810;28;19933;-69
2022/05/22 06:05:51;;;;;;;;;;;15.40;70.20;;;;;;4995278;28;19937;-69
2022/05/22 06:08:18;;;;;;;;;;;15.30;70.20;;;;;;4999722;28;19936;-73
2022/05/22 06:10:46;;;;;;;;;;;15.40;70.40;;;;;;4997188;28;19930;-72
2022/05/22 06:13:13;;;;;;;;;;;15.40;70.30;;;;;;5001547;28;19933;-70
2022/05/22 06:15:40;;;;;;;;;;;15.40;70.20;;;;;;4998235;28;20582;-74
2022/05/22 06:18:07;;;;;;;;;;;15.40;70.30;;;;;;5002524;28;20543;-69
2022/05/22 06:20:34;;;;;;;;;;;15.40;70.30;;;;;;4997945;28;19936;-68
2022/05/22 06:23:00;;;;;;;;;;;15.40;70.30;;;;;;5000475;28;19949;-71
2022/05/22 06:25:27;;;;;;;;;;;15.40;70.30;;;;;;4998721;28;19937;-74
2022/05/22 06:27:53;;;;;;;;;;;15.50;70.30;;;;;;4999624;28;20008;-70
2022/05/22 06:30:22;;;;;;;;;;;15.50;70.30;;;;;;4997666;28;19933;-69
2022/05/22 06:32:49;;;;;;;;;;;15.50;70.20;;;;;;5000036;28;19968;-71
2022/05/22 06:35:16;;;;;;;;;;;15.50;70.10;;;;;;4994895;28;19929;-71
2022/05/22 06:37:43;;;;;;;;;;;15.50;70.10;;;;;;4999493;28;19940;-69
2022/05/22 06:40:09;;;;;;;;;;;15.50;70.10;;;;;;5002483;28;19929;-72
2022/05/22 06:42:37;;;;;;;;;;;15.50;70.10;;;;;;4996746;28;20707;-69
2022/05/22 06:45:05;;;;;;;;;;;15.60;70.10;;;;;;4996982;28;19933;-71
2022/05/22 06:47:34;;;;;;;;;;;15.60;70.10;;;;;;4996587;28;20417;-71
2022/05/22 06:50:03;;;;;;;;;;;15.60;70.10;;;;;;5000310;28;20661;-72
2022/05/22 06:52:31;;;;;;;;;;;15.60;70.00;;;;;;5002250;28;19929;-70
2022/05/22 06:54:57;;;;;;;;;;;15.70;70.20;;;;;;4995904;28;20397;-69
2022/05/22 06:57:24;;;;;;;;;;;15.70;70.00;;;;;;4995993;28;19930;-71
2022/05/22 06:59:53;;;;;;;;;;;15.70;69.80;;;;;;5000039;28;19933;-68
2022/05/22 07:02:20;;;;;;;;;;;15.70;69.80;;;;;;4998170;28;20044;-68
2022/05/22 07:04:48;;;;;;;;;;;15.70;69.60;;;;;;4997417;28;20415;-68
2022/05/22 07:07:14;;;;;;;;;;;15.80;70.40;;;;;;4999598;28;19936;-71
2022/05/22 07:09:41;;;;;;;;;;;15.90;71.40;;;;;;5000269;28;19930;-71
2022/05/22 07:12:09;;;;;;;;;;;16.00;70.20;;;;;;5003152;28;19937;-74
2022/05/22 07:14:36;;;;;;;;;;;16.10;69.50;;;;;;5000305;28;19934;-66
2022/05/22 07:17:03;;;;;;;;;;;16.10;69.40;;;;;;5006688;28;20020;-70
2022/05/22 07:19:29;;;;;;;;;;;16.10;69.60;;;;;;4997001;28;19937;-69
2022/05/22 07:21:57;;;;;;;;;;;16.00;69.50;;;;;;5006121;28;19976;-70
2022/05/22 07:24:24;;;;;;;;;;;16.00;69.50;;;;;;5004463;28;19930;-68
2022/05/22 07:26:50;;;;;;;;;;;16.00;69.50;;;;;;4993925;28;19930;-69
2022/05/22 07:29:17;;;;;;;;;;;16.10;69.50;;;;;;5001071;28;20663;-72
2022/05/22 07:31:43;;;;;;;;;;;16.10;69.40;;;;;;5001784;28;20316;-68
2022/05/22 07:34:10;;;;;;;;;;;16.10;69.40;;;;;;5003536;28;19972;-69
2022/05/22 07:36:36;;;;;;;;;;;16.10;69.50;;;;;;5003241;28;20016;-69
2022/05/22 07:39:05;;;;;;;;;;;16.10;69.60;;;;;;5005226;28;19934;-71
2022/05/22 07:41:31;;;;;;;;;;;16.10;69.70;;;;;;5006640;28;19936;-71
2022/05/22 07:43:58;;;;;;;;;;;16.20;69.70;;;;;;5002023;28;20418;-67
2022/05/22 07:46:25;;;;;;;;;;;16.20;69.70;;;;;;5002386;28;19933;-68
2022/05/22 07:48:52;;;;;;;;;;;16.20;69.60;;;;;;4997224;28;20577;-71
2022/05/22 07:51:18;;;;;;;;;;;16.20;69.50;;;;;;5005471;28;19929;-71
2022/05/22 07:53:45;;;;;;;;;;;16.30;69.50;;;;;;5005440;28;20416;-69
2022/05/22 07:56:13;;;;;;;;;;;16.30;69.50;;;;;;5008282;28;19933;-68
2022/05/22 07:58:39;;;;;;;;;;;16.30;69.50;;;;;;5003757;28;19936;-70
2022/05/22 08:01:06;;;;;;;;;;;16.40;69.50;;;;;;4995289;28;19929;-68
2022/05/22 08:03:33;;;;;;;;;;;16.40;69.30;;;;;;4999466;28;19930;-67
2022/05/22 08:06:00;;;;;;;;;;;16.40;69.20;;;;;;5003138;28;19929;-70
2022/05/22 08:08:27;;;;;;;;;;;16.50;69.00;;;;;;5003691;28;19929;-68
2022/05/22 08:10:54;;;;;;;;;;;16.50;68.90;;;;;;4999077;28;20012;-69
2022/05/22 08:13:22;;;;;;;;;;;16.50;68.90;;;;;;5002815;28;19992;-69
2022/05/22 08:15:48;;;;;;;;;;;16.60;69.10;;;;;;5003332;28;19934;-71
2022/05/22 08:18:15;;;;;;;;;;;16.60;69.00;;;;;;5008355;28;19929;-70
2022/05/22 08:20:43;;;;;;;;;;;16.60;69.10;;;;;;5001702;28;19941;-68
2022/05/22 08:23:10;;;;;;;;;;;16.70;69.30;;;;;;4997766;28;19935;-67
2022/05/22 08:25:37;;;;;;;;;;;16.70;69.20;;;;;;4995691;28;19945;-69
2022/05/22 08:28:04;;;;;;;;;;;16.70;69.20;;;;;;4999364;28;20026;-70
2022/05/22 08:30:33;;;;;;;;;;;16.80;69.40;;;;;;4992793;28;20729;-67
2022/05/22 08:32:59;;;;;;;;;;;16.90;69.60;;;;;;5002532;28;19940;-71
2022/05/22 08:35:27;;;;;;;;;;;16.90;69.70;;;;;;5004963;28;20299;-70
2022/05/22 08:37:54;;;;;;;;;;;16.90;69.60;;;;;;5004196;28;19933;-70
2022/05/22 08:40:22;;;;;;;;;;;17.00;69.60;;;;;;4994438;28;19933;-69
2022/05/22 08:42:49;;;;;;;;;;;17.00;69.50;;;;;;5001442;28;19929;-71
2022/05/22 08:45:17;;;;;;;;;;;17.10;69.50;;;;;;4997634;28;19996;-68
2022/05/22 08:47:50;;;;;;;;;;;17.10;69.40;;;;;;5004637;28;20008;-69
2022/05/22 08:50:17;;;;;;;;;;;17.20;69.40;;;;;;4995881;28;19930;-66
2022/05/22 08:52:47;;;;;;;;;;;17.20;69.30;;;;;;4992972;28;19941;-70
2022/05/22 08:55:16;;;;;;;;;;;17.20;69.20;;;;;;4995661;28;19929;-69
2022/05/22 09:00:28;;;;;;;;;;;17.30;69.00;;;;;;4993044;28;19932;-70
2022/05/22 09:02:59;;;;;;;;;;;17.40;68.80;;;;;;5000615;28;19929;-72
2022/05/22 09:05:28;;;;;;;;;;;17.50;68.80;;;;;;4994355;28;20016;-68
2022/05/22 09:07:57;;;;;;;;;;;17.50;68.50;;;;;;5001274;28;20013;-68
2022/05/22 09:10:28;;;;;;;;;;;17.50;68.20;;;;;;4990061;28;19936;-65
2022/05/22 09:13:10;;;;;;;;;;;17.60;68.00;;;;;;4995198;28;20295;-69
2022/05/22 09:15:42;;;;;;;;;;;17.60;67.80;;;;;;4996926;28;19937;-68
2022/05/22 09:18:17;;;;;;;;;;;17.70;67.40;;;;;;4996549;28;19940;-67
2022/05/22 09:20:49;;;;;;;;;;;17.80;67.20;;;;;;5001716;28;19936;-69
2022/05/22 09:23:25;;;;;;;;;;;17.80;67.00;;;;;;5000503;28;19926;-68
2022/05/22 09:25:57;;;;;;;;;;;17.80;66.70;;;;;;4996433;28;20408;-68
2022/05/22 09:28:26;;;;;;;;;;;17.90;66.50;;;;;;4996216;28;19930;-68
2022/05/22 09:30:57;;;;;;;;;;;18.00;66.20;;;;;;5000418;28;19937;-69
2022/05/22 09:33:30;;;;;;;;;;;18.00;65.80;;;;;;4998106;28;19929;-67
2022/05/22 09:36:00;;;;;;;;;;;18.10;65.30;;;;;;5004472;28;19930;-71
2022/05/22 09:38:54;;;;;;;;;;;18.20;64.90;;;;;;5000400;28;19929;-69
2022/05/22 09:41:26;;;;;;;;;;;18.20;64.90;;;;;;4961247;28;19929;-68
2022/05/22 09:44:02;;;;;;;;;;;18.30;64.70;;;;;;5001441;28;19952;-70
2022/05/22 09:46:34;;;;;;;;;;;18.40;64.40;;;;;;5003326;28;19941;-69
2022/05/22 09:49:08;;;;;;;;;;;18.50;64.20;;;;;;4996900;28;19936;-67
2022/05/22 09:51:37;;;;;;;;;;;18.50;63.90;;;;;;5003726;28;19926;-67
2022/05/22 09:54:12;;;;;;;;;;;18.60;63.70;;;;;;4998076;28;19930;-73
2022/05/22 09:56:45;;;;;;;;;;;18.70;63.50;;;;;;4997268;28;19952;-69
2022/05/22 09:59:23;;;;;;;;;;;18.70;62.90;;;;;;5000848;28;19929;-66
2022/05/22 10:01:52;;;;;;;;;;;18.80;62.80;;;;;;5003474;28;20681;-71
2022/05/22 10:04:27;;;;;;;;;;;18.90;62.60;;;;;;5002755;28;19968;-68
2022/05/22 10:06:57;;;;;;;;;;;18.90;62.50;;;;;;4996757;28;20677;-69
2022/05/22 10:09:29;;;;;;;;;;;19.00;62.30;;;;;;5011907;28;19929;-71
2022/05/22 10:12:03;;;;;;;;;;;19.10;61.80;;;;;;4996434;28;19929;-67
2022/05/22 10:14:37;;;;;;;;;;;19.10;61.40;;;;;;4999955;28;19933;-68
2022/05/22 10:17:10;;;;;;;;;;;19.20;61.40;;;;;;5001979;28;19937;-69
2022/05/22 10:19:42;;;;;;;;;;;19.30;61.10;;;;;;5003820;28;19933;-68
2022/05/22 10:22:14;;;;;;;;;;;19.40;60.70;;;;;;5000627;28;20512;-68
2022/05/22 10:24:47;;;;;;;;;;;19.50;60.30;;;;;;4999814;28;19937;-74
2022/05/22 10:27:18;;;;;;;;;;;19.50;59.90;;;;;;5003440;28;19933;-68
2022/05/22 10:29:47;;;;;;;;;;;19.60;59.70;;;;;;5000449;28;19930;-70
2022/05/22 10:32:17;;;;;;;;;;;19.60;59.50;;;;;;4995766;28;20401;-72
2022/05/22 10:34:46;;;;;;;;;;;19.70;59.40;;;;;;5003791;28;19929;-67
2022/05/22 10:37:17;;;;;;;;;;;19.80;59.30;;;;;;5001589;28;19929;-67
2022/05/22 10:39:43;;;;;;;;;;;19.90;59.10;;;;;;5002144;28;20436;-66
2022/05/22 10:45:03;;;;;;;;;;;20.00;58.50;;;;;;4997307;28;20029;-67
2022/05/22 10:47:30;;;;;;;;;;;20.10;58.30;;;;;;4999417;28;20507;-67
2022/05/22 10:49:59;;;;;;;;;;;20.20;58.10;;;;;;5001464;28;19930;-68
2022/05/22 10:52:27;;;;;;;;;;;20.20;58.00;;;;;;4996999;28;19938;-69
2022/05/22 10:54:54;;;;;;;;;;;20.30;58.00;;;;;;4995151;28;19977;-68
2022/05/22 10:57:22;;;;;;;;;;;20.40;57.90;;;;;;4999142;28;19933;-66
2022/05/22 10:59:49;;;;;;;;;;;20.50;57.50;;;;;;5001279;28;19930;-71
2022/05/22 11:02:19;;;;;;;;;;;20.50;57.40;;;;;;5001494;28;20314;-69
2022/05/22 11:04:46;;;;;;;;;;;20.60;57.40;;;;;;5000186;28;20033;-67
2022/05/22 11:07:14;;;;;;;;;;;20.60;57.40;;;;;;5002694;28;20012;-69
2022/05/22 11:09:45;;;;;;;;;;;20.70;57.20;;;;;;4999250;28;19929;-68
2022/05/22 11:12:13;;;;;;;;;;;20.70;56.90;;;;;;4995799;28;19936;-67
2022/05/22 11:14:40;;;;;;;;;;;20.80;56.70;;;;;;4995737;28;20432;-70
2022/05/22 11:17:11;;;;;;;;;;;20.90;56.50;;;;;;5000168;28;19929;-71
2022/05/22 11:19:39;;;;;;;;;;;20.90;56.30;;;;;;4997810;28;19931;-70
2022/05/22 11:22:09;;;;;;;;;;;21.00;55.80;;;;;;5000870;28;19929;-69
2022/05/22 11:24:42;;;;;;;;;;;21.00;55.90;;;;;;4999555;28;20476;-68
2022/05/22 11:27:13;;;;;;;;;;;21.10;55.90;;;;;;5002308;28;19936;-67
2022/05/22 11:29:54;;;;;;;;;;;21.10;55.90;;;;;;4993538;28;19936;-68
2022/05/22 11:32:28;;;;;;;;;;;21.20;55.90;;;;;;5003388;28;19934;-66
2022/05/22 11:35:02;;;;;;;;;;;21.20;54.40;;;;;;5000832;28;20392;-69
2022/05/22 11:37:35;;;;;;;;;;;21.30;55.00;;;;;;5002590;28;19992;-69
2022/05/22 11:40:09;;;;;;;;;;;21.40;55.00;;;;;;4994559;28;19926;-67
2022/05/22 11:42:36;;;;;;;;;;;21.40;54.60;;;;;;5001472;28;19932;-67
2022/05/22 11:45:10;;;;;;;;;;;21.40;54.50;;;;;;5000253;28;19936;-69
2022/05/22 11:47:55;;;;;;;;;;;21.50;54.30;;;;;;5001883;28;19937;-70
2022/05/22 11:50:31;;;;;;;;;;;21.60;54.20;;;;;;4998019;28;19933;-69
2022/05/22 11:53:03;;;;;;;;;;;21.60;54.00;;;;;;4998583;28;20398;-68
2022/05/22 11:55:38;;;;;;;;;;;21.70;54.20;;;;;;4997974;28;20686;-69
2022/05/22 11:58:11;;;;;;;;;;;21.80;53.70;;;;;;5004165;28;19936;-67
2022/05/22 12:00:41;;;;;;;;;;;21.90;54.10;;;;;;4995309;28;20552;-70
2022/05/22 12:03:15;;;;;;;;;;;21.90;54.00;;;;;;5004565;28;20433;-70
2022/05/22 12:05:46;;;;;;;;;;;22.00;53.80;;;;;;5002566;28;20669;-67
2022/05/22 12:08:31;;;;;;;;;;;22.10;53.80;;;;;;5004116;28;19925;-66
2022/05/22 12:11:01;;;;;;;;;;;22.10;53.70;;;;;;4995442;28;19930;-70
2022/05/22 12:13:31;;;;;;;;;;;22.20;53.50;;;;;;4999355;28;19930;-71
2022/05/22 12:15:59;;;;;;;;;;;22.30;53.30;;;;;;5001428;28;19929;-67
2022/05/22 12:18:36;;;;;;;;;;;22.30;53.10;;;;;;4999408;28;19929;-70
2022/05/22 12:21:06;;;;;;;;;;;22.40;53.10;;;;;;5003151;28;19929;-68
2022/05/22 12:23:38;;;;;;;;;;;22.40;52.70;;;;;;4998963;28;19929;-69
2022/05/22 12:26:07;;;;;;;;;;;22.50;52.60;;;;;;4998252;28;19930;-67
2022/05/22 12:28:41;;;;;;;;;;;22.50;52.50;;;;;;4999184;28;19928;-68
2022/05/22 12:31:09;;;;;;;;;;;22.60;52.30;;;;;;4997017;28;20024;-72
2022/05/22 12:33:38;;;;;;;;;;;22.70;52.30;;;;;;4997870;28;19929;-68
2022/05/22 12:36:05;;;;;;;;;;;22.70;51.90;;;;;;5004275;28;20057;-68
2022/05/22 12:38:33;;;;;;;;;;;22.80;51.00;;;;;;4998251;28;20412;-69
2022/05/22 12:41:04;;;;;;;;;;;22.80;50.90;;;;;;4993977;28;19930;-68
2022/05/22 12:43:32;;;;;;;;;;;22.90;51.10;;;;;;4998545;28;19934;-70
2022/05/22 12:46:00;;;;;;;;;;;22.90;51.10;;;;;;4998692;28;19937;-70
2022/05/22 12:48:28;;;;;;;;;;;23.00;50.80;;;;;;4999521;28;20317;-67
2022/05/22 12:51:06;;;;;;;;;;;23.00;50.70;;;;;;4997415;28;20000;-71
2022/05/22 12:53:33;;;;;;;;;;;23.10;50.70;;;;;;4990130;28;20352;-73
2022/05/22 12:56:16;;;;;;;;;;;23.10;50.80;;;;;;5002726;28;20473;-68
2022/05/22 12:58:47;;;;;;;;;;;23.20;50.20;;;;;;5000414;28;19956;-69
2022/05/22 13:01:23;;;;;;;;;;;23.20;50.30;;;;;;4998106;28;19952;-68
2022/05/22 13:03:50;;;;;;;;;;;23.30;50.70;;;;;;4995461;28;19930;-68
2022/05/22 13:06:20;;;;;;;;;;;23.40;50.20;;;;;;5004130;28;19967;-67
2022/05/22 13:08:49;;;;;;;;;;;23.40;49.70;;;;;;4994620;28;19930;-69
2022/05/22 13:11:16;;;;;;;;;;;23.40;49.70;;;;;;4990110;28;19933;-71
2022/05/22 13:13:48;;;;;;;;;;;23.50;49.70;;;;;;4994157;28;19983;-67
2022/05/22 13:16:24;;;;;;;;;;;23.60;49.70;;;;;;4995970;28;19934;-71
2022/05/22 13:18:51;;;;;;;;;;;23.60;49.50;;;;;;5002365;28;19960;-69
2022/05/22 13:21:28;;;;;;;;;;;23.70;48.90;;;;;;4996958;28;19937;-68
2022/05/22 13:24:01;;;;;;;;;;;23.80;49.10;;;;;;4997210;28;19934;-70
2022/05/22 13:26:29;;;;;;;;;;;23.80;49.10;;;;;;5002603;28;19930;-69
2022/05/22 13:28:59;;;;;;;;;;;23.90;49.10;;;;;;5002025;28;20566;-68
2022/05/22 13:31:32;;;;;;;;;;;23.90;49.30;;;;;;5003435;28;19930;-71
2022/05/22 13:34:07;;;;;;;;;;;24.00;49.40;;;;;;4993721;28;19984;-68
2022/05/22 13:36:34;;;;;;;;;;;24.00;48.80;;;;;;4993873;28;20585;-71
2022/05/22 13:39:02;;;;;;;;;;;24.00;48.60;;;;;;5001996;28;20425;-71
2022/05/22 13:41:43;;;;;;;;;;;24.10;48.90;;;;;;4998724;28;19926;-67
2022/05/22 13:44:28;;;;;;;;;;;24.20;48.90;;;;;;4996207;28;19929;-70
2022/05/22 13:47:11;;;;;;;;;;;24.20;48.80;;;;;;4952016;28;19929;-68
2022/05/22 13:49:48;;;;;;;;;;;24.30;48.50;;;;;;4973439;28;19930;-70
2022/05/22 13:52:34;;;;;;;;;;;24.30;48.40;;;;;;4980910;28;19963;-68
2022/05/22 13:55:06;;;;;;;;;;;24.30;48.20;;;;;;4982686;28;20080;-68
2022/05/22 13:57:35;;;;;;;;;;;24.40;48.10;;;;;;4974024;28;19933;-70
2022/05/22 14:00:03;;;;;;;;;;;24.50;48.40;;;;;;4977554;28;19937;-68
2022/05/22 14:02:37;;;;;;;;;;;24.50;48.00;;;;;;4973488;28;20476;-68
2022/05/22 14:05:08;;;;;;;;;;;24.50;47.50;;;;;;4981244;28;20333;-68
2022/05/22 14:07:37;;;;;;;;;;;24.50;47.20;;;;;;4978975;28;19926;-68
2022/05/22 14:10:04;;;;;;;;;;;24.60;47.00;;;;;;4976204;28;20398;-69
2022/05/22 14:12:33;;;;;;;;;;;24.70;47.30;;;;;;4977087;28;19936;-69
2022/05/22 14:15:10;;;;;;;;;;;24.70;47.40;;;;;;4976362;28;19930;-69
2022/05/22 14:17:38;;;;;;;;;;;24.80;47.70;;;;;;4997348;28;20016;-70
2022/05/22 14:20:07;;;;;;;;;;;24.80;47.20;;;;;;4995286;28;19937;-69
2022/05/22 14:22:33;;;;;;;;;;;24.90;46.80;;;;;;5005428;28;20305;-73
2022/05/22 14:25:00;;;;;;;;;;;24.90;46.80;;;;;;5002483;28;19936;-70
2022/05/22 14:27:32;;;;;;;;;;;24.90;46.60;;;;;;5004459;28;19937;-69
2022/05/22 14:30:14;;;;;;;;;;;25.00;46.80;;;;;;5000155;28;19929;-71
2022/05/22 14:32:42;;;;;;;;;;;25.10;47.00;;;;;;4995032;28;20603;-70
2022/05/22 14:35:13;;;;;;;;;;;25.10;46.90;;;;;;5003829;28;20239;-68